createdAt,value
2023-05-11T08:34:30.942Z,100321.25
2023-05-11T08:37:02.181Z,100319.06
2023-05-11T08:39:45.977Z,100317.78
2023-05-11T08:42:16.559Z,100318.91
2023-05-11T08:44:46.056Z,100319.81
2023-05-11T08:49:50.288Z,100306.94
2023-05-11T08:52:19.653Z,100306.91
2023-05-11T08:54:49.087Z,100311.22
2023-05-11T08:57:18.434Z,100307.84
2023-05-11T08:59:48.106Z,100307.16
2023-05-11T09:02:18.932Z,100308.13
2023-05-11T09:04:50.932Z,100315.50
2023-05-11T09:07:20.394Z,100321.44
2023-05-11T09:09:49.896Z,100325.72
2023-05-11T09:12:19.234Z,100321.34
2023-05-11T09:14:48.726Z,100314.28
2023-05-11T09:17:18.193Z,100315.38
2023-05-11T09:20:05.413Z,100314.63
2023-05-11T09:22:36.671Z,100303.66
2023-05-11T09:25:06.297Z,100315.28
2023-05-11T09:27:35.891Z,100310.22
2023-05-11T09:30:22.261Z,100316.16
2023-05-11T09:32:55.522Z,100319.13
2023-05-11T09:35:28.872Z,100317.78
2023-05-11T09:38:02.517Z,100316.66
2023-05-11T09:40:33.915Z,100309.00
2023-05-11T09:43:04.196Z,100313.47
2023-05-11T09:45:42.966Z,100309.44
2023-05-11T09:48:16.735Z,100296.22
2023-05-11T09:50:48.673Z,100316.13
2023-05-11T09:53:18.092Z,100312.16
2023-05-11T09:55:51.438Z,100312.13
2023-05-11T09:58:20.802Z,100308.13
2023-05-11T10:00:53.881Z,100309.66
2023-05-11T10:03:25.816Z,100302.34
2023-05-11T10:06:04.477Z,100308.78
2023-05-11T10:08:34.639Z,100302.63
2023-05-11T10:11:04.048Z,100305.34
2023-05-11T10:13:33.603Z,100301.63
2023-05-11T10:16:03.647Z,100302.38
2023-05-11T10:18:33.788Z,100294.34
2023-05-11T10:21:05.717Z,100302.09
2023-05-11T10:23:36.460Z,100302.59
2023-05-11T10:26:05.910Z,100299.56
2023-05-11T10:28:35.231Z,100300.41
2023-05-11T10:31:04.563Z,100299.78
2023-05-11T10:33:34.375Z,100294.94
2023-05-11T10:36:06.793Z,100297.06
2023-05-11T10:38:36.298Z,100286.97
2023-05-11T10:41:15.162Z,100288.94
2023-05-11T10:43:49.279Z,100292.63
2023-05-11T10:46:22.909Z,100292.13
2023-05-11T10:48:55.883Z,100287.94
2023-05-11T10:51:40.734Z,100289.56
2023-05-11T10:54:13.293Z,100294.91
2023-05-11T10:56:50.093Z,100297.34
2023-05-11T10:59:23.379Z,100294.34
2023-05-11T11:01:54.902Z,100291.16
2023-05-11T11:04:24.327Z,100293.00
2023-05-11T11:13:06.481Z,100285.19
2023-05-11T11:15:50.888Z,100290.03
2023-05-11T11:18:25.983Z,100290.03
2023-05-11T11:20:55.797Z,100287.34
2023-05-11T11:23:40.206Z,100283.03
2023-05-11T11:26:10.166Z,100276.34
2023-05-11T11:28:54.577Z,100280.97
2023-05-11T11:31:27.671Z,100283.41
2023-05-11T11:34:01.268Z,100274.06
2023-05-11T11:36:58.703Z,100276.19
2023-05-11T11:39:28.223Z,100276.41
2023-05-11T11:42:02.790Z,100275.09
2023-05-11T11:44:32.334Z,100272.16
2023-05-11T11:47:16.626Z,100276.97
2023-05-11T11:49:49.284Z,100277.44
2023-05-11T11:52:35.087Z,100270.13
2023-05-11T11:55:05.826Z,100277.97
2023-05-11T11:57:46.818Z,100267.81
2023-05-11T12:00:17.160Z,100279.88
2023-05-11T12:02:47.179Z,100270.41
2023-05-11T12:05:22.993Z,100259.41
2023-05-11T12:07:53.344Z,100277.41
2023-05-11T12:10:23.137Z,100272.56
2023-05-11T12:12:55.148Z,100269.38
2023-05-11T12:15:27.422Z,100265.09
2023-05-11T12:17:56.864Z,100261.88
2023-05-11T12:20:28.825Z,100258.13
2023-05-11T12:22:58.130Z,100255.69
2023-05-11T12:25:27.494Z,100263.91
2023-05-11T12:27:58.580Z,100267.16
2023-05-11T12:30:28.447Z,100266.91
2023-05-11T12:32:58.104Z,100267.97
2023-05-11T12:35:30.413Z,100259.66
2023-05-11T12:38:00.079Z,100252.44
2023-05-11T12:40:29.574Z,100257.28
2023-05-11T12:42:59.181Z,100265.59
2023-05-11T12:45:29.422Z,100255.91
2023-05-11T12:47:59.268Z,100252.69
2023-05-11T12:50:31.304Z,100258.84
2023-05-11T12:53:14.565Z,100249.75
2023-05-11T12:55:44.153Z,100245.72
2023-05-11T12:58:14.290Z,100254.28
2023-05-11T13:00:54.435Z,100247.81
2023-05-11T13:03:24.239Z,100243.28
2023-05-11T13:05:56.184Z,100246.75
2023-05-11T13:08:25.602Z,100245.41
2023-05-11T13:10:54.913Z,100241.94
2023-05-11T13:13:30.307Z,100240.53
2023-05-11T13:15:59.942Z,100236.59
2023-05-11T13:18:29.341Z,100241.53
2023-05-11T13:21:11.265Z,100234.56
2023-05-11T13:23:40.667Z,100238.09
2023-05-11T13:26:10.085Z,100230.91
2023-05-11T13:28:39.403Z,100239.16
2023-05-11T13:31:08.914Z,100243.66
2023-05-11T13:33:38.517Z,100237.94
2023-05-11T13:36:08.152Z,100237.38
2023-05-11T13:38:40.135Z,100227.75
2023-05-11T13:41:10.130Z,100230.75
2023-05-11T13:43:39.648Z,100239.09
2023-05-11T13:46:09.483Z,100237.59
2023-05-11T13:48:38.782Z,100233.78
2023-05-11T13:51:08.233Z,100230.25
2023-05-11T13:53:40.148Z,100227.72
2023-05-11T13:56:09.483Z,100238.31
2023-05-11T13:58:39.363Z,100225.06
2023-05-11T14:01:09.185Z,100232.44
2023-05-11T14:03:38.660Z,100237.16
2023-05-11T14:06:08.469Z,100224.84
2023-05-11T14:08:40.362Z,100228.31
2023-05-11T14:11:09.653Z,100222.28
2023-05-11T14:13:38.941Z,100211.91
2023-05-11T14:16:10.203Z,100221.94
2023-05-11T14:18:39.692Z,100211.84
2023-05-11T14:21:09.100Z,100218.69
2023-05-11T14:23:47.322Z,100215.47
2023-05-11T14:26:23.204Z,100201.69
2023-05-11T14:28:52.748Z,100206.88
2023-05-11T14:31:22.656Z,100208.59
2023-05-11T14:33:51.995Z,100203.88
2023-05-11T14:36:21.540Z,100204.56
2023-05-11T14:38:53.469Z,100212.38
2023-05-11T14:41:23.352Z,100211.84
2023-05-11T14:43:52.676Z,100200.53
2023-05-11T14:46:22.744Z,100205.94
2023-05-11T14:48:53.213Z,100202.16
2023-05-11T14:51:22.522Z,100194.13
2023-05-11T14:53:54.520Z,100194.94
2023-05-11T14:56:23.895Z,100201.72
2023-05-11T14:58:53.778Z,100203.56
2023-05-11T15:01:23.137Z,100197.50
2023-05-11T15:03:52.513Z,100198.06
2023-05-11T15:06:23.769Z,100192.59
2023-05-11T15:08:55.659Z,100192.50
2023-05-11T15:11:25.367Z,100198.00
2023-05-11T15:13:54.942Z,100208.28
2023-05-11T15:16:24.315Z,100200.75
2023-05-11T15:18:53.716Z,100197.59
2023-05-11T15:21:23.061Z,100204.97
2023-05-11T15:23:55.048Z,100207.41
2023-05-11T15:26:24.408Z,100205.91
2023-05-11T15:28:53.709Z,100215.22
2023-05-11T15:31:23.523Z,100219.47
2023-05-11T15:33:52.884Z,100219.97
2023-05-11T15:36:22.349Z,100220.94
2023-05-11T15:38:51.628Z,100228.50
2023-05-11T15:41:24.317Z,100226.06
2023-05-11T15:43:53.893Z,100235.69
2023-05-11T15:46:23.592Z,100240.63
2023-05-11T15:48:52.925Z,100239.72
2023-05-11T15:51:22.282Z,100233.34
2023-05-11T15:53:51.570Z,100234.75
2023-05-11T15:56:23.511Z,100235.56
2023-05-11T15:58:52.825Z,100231.88
2023-05-11T16:01:22.326Z,100237.03
2023-05-11T16:03:51.807Z,100236.31
2023-05-11T16:06:21.511Z,100234.69
2023-05-11T16:08:50.815Z,100238.59
2023-05-11T16:11:20.126Z,100235.31
2023-05-11T16:13:52.019Z,100225.81
2023-05-11T16:16:21.392Z,100231.59
2023-05-11T16:18:50.797Z,100227.09
2023-05-11T16:21:20.157Z,100225.22
2023-05-11T16:23:49.666Z,100229.25
2023-05-11T16:26:19.002Z,100229.34
2023-05-11T16:28:48.342Z,100222.75
2023-05-11T16:31:20.357Z,100227.22
2023-05-11T16:33:49.748Z,100225.47
2023-05-11T16:36:19.068Z,100226.91
2023-05-11T16:38:48.417Z,100223.25
2023-05-11T16:41:17.712Z,100230.78
2023-05-11T16:43:47.817Z,100231.25
2023-05-11T16:46:17.106Z,100221.72
2023-05-11T16:48:49.055Z,100234.34
2023-05-11T16:51:18.360Z,100227.97
2023-05-11T16:53:48.032Z,100222.66
2023-05-11T16:56:17.618Z,100235.53
2023-05-11T16:58:46.898Z,100231.72
2023-05-11T17:01:16.573Z,100228.19
2023-05-11T17:03:46.013Z,100226.00
2023-05-11T17:06:20.985Z,100224.31
2023-05-11T17:08:50.496Z,100230.81
2023-05-11T17:11:19.840Z,100232.25
2023-05-11T17:13:49.126Z,100238.25
2023-05-11T17:16:18.614Z,100230.97
2023-05-11T17:18:47.980Z,100241.78
2023-05-11T17:21:20.053Z,100231.13
2023-05-11T17:23:49.329Z,100236.72
2023-05-11T17:26:18.683Z,100233.28
2023-05-11T17:28:47.988Z,100237.69
2023-05-11T17:31:17.957Z,100230.22
2023-05-11T17:33:47.650Z,100242.28
2023-05-11T17:36:17.064Z,100241.25
2023-05-11T17:38:49.921Z,100241.69
2023-05-11T17:41:19.224Z,100247.34
2023-05-11T17:43:49.002Z,100242.28
2023-05-11T17:46:18.359Z,100235.22
2023-05-11T17:48:48.040Z,100237.78
2023-05-11T17:51:17.353Z,100236.38
2023-05-11T17:53:49.942Z,100234.66
2023-05-11T17:56:19.310Z,100239.16
2023-05-11T17:58:49.519Z,100236.81
2023-05-11T18:01:19.756Z,100237.75
2023-05-11T18:03:49.467Z,100235.56
2023-05-11T18:06:19.224Z,100241.34
2023-05-11T18:08:52.109Z,100240.22
2023-05-11T18:11:21.421Z,100243.56
2023-05-11T18:13:51.141Z,100247.34
2023-05-11T18:16:21.153Z,100253.75
2023-05-11T18:18:50.640Z,100252.25
2023-05-11T18:21:19.991Z,100250.50
2023-05-11T18:23:52.000Z,100256.59
2023-05-11T18:26:21.820Z,100263.06
2023-05-11T18:28:51.130Z,100262.22
2023-05-11T18:31:20.474Z,100254.72
2023-05-11T18:33:50.249Z,100267.47
2023-05-11T18:36:19.548Z,100264.81
2023-05-11T18:38:52.256Z,100262.13
2023-05-11T18:41:21.560Z,100262.13
2023-05-11T18:43:52.834Z,100262.38
2023-05-11T18:46:22.379Z,100262.22
2023-05-11T18:48:53.081Z,100269.31
2023-05-11T18:51:22.961Z,100267.22
2023-05-11T18:53:55.080Z,100267.09
2023-05-11T18:56:25.632Z,100265.78
2023-05-11T18:58:54.925Z,100268.56
2023-05-11T19:01:30.251Z,100277.19
2023-05-11T19:04:05.707Z,100279.06
2023-05-11T19:06:35.014Z,100272.91
2023-05-11T19:09:07.177Z,100275.22
2023-05-11T19:11:36.466Z,100267.47
2023-05-11T19:14:05.763Z,100272.19
2023-05-11T19:16:35.949Z,100273.22
2023-05-11T19:19:05.416Z,100270.88
2023-05-11T19:21:35.545Z,100277.31
2023-05-11T19:24:07.648Z,100279.13
2023-05-11T19:26:36.909Z,100270.75
2023-05-11T19:29:06.284Z,100276.91
2023-05-11T19:31:35.642Z,100283.47
2023-05-11T19:34:06.918Z,100281.66
2023-05-11T19:36:36.289Z,100283.34
2023-05-11T19:39:08.232Z,100288.50
2023-05-11T19:41:37.522Z,100289.34
2023-05-11T19:44:06.958Z,100287.09
2023-05-11T19:46:36.550Z,100284.09
2023-05-11T19:49:05.924Z,100286.84
2023-05-11T19:51:35.287Z,100291.88
2023-05-11T19:54:04.604Z,100292.50
2023-05-11T19:56:36.712Z,100290.94
2023-05-11T19:59:06.000Z,100294.44
2023-05-11T20:01:35.528Z,100299.66
2023-05-11T20:04:05.087Z,100302.13
2023-05-11T20:06:34.536Z,100297.38
2023-05-11T20:09:04.007Z,100294.03
2023-05-11T20:11:36.018Z,100301.94
2023-05-11T20:14:06.288Z,100298.41
2023-05-11T20:16:35.715Z,100303.53
2023-05-11T20:19:05.633Z,100306.63
2023-05-11T20:21:36.014Z,100302.56
2023-05-11T20:24:05.400Z,100297.03
2023-05-11T20:26:37.288Z,100299.41
2023-05-11T20:29:07.923Z,100297.34
2023-05-11T20:31:38.011Z,100295.34
2023-05-11T20:34:07.696Z,100293.72
2023-05-11T20:36:37.068Z,100292.25
2023-05-11T20:39:06.454Z,100288.91
2023-05-11T20:41:38.601Z,100291.16
2023-05-11T20:44:13.579Z,100286.03
2023-05-11T20:46:43.042Z,100287.88
2023-05-11T20:49:22.203Z,100282.56
2023-05-11T20:51:54.158Z,100283.81
2023-05-11T20:54:23.472Z,100282.41
2023-05-11T20:56:55.448Z,100282.88
2023-05-11T21:01:56.990Z,100282.41
2023-05-11T21:04:26.394Z,100283.28
2023-05-11T21:06:57.005Z,100270.59
2023-05-11T21:09:26.321Z,100271.69
2023-05-11T21:11:58.473Z,100273.31
2023-05-11T21:14:27.889Z,100271.25
2023-05-11T21:16:57.300Z,100267.19
2023-05-11T21:19:26.635Z,100268.81
2023-05-11T21:21:55.944Z,100268.44
2023-05-11T21:24:25.261Z,100269.31
2023-05-11T21:26:54.588Z,100277.13
2023-05-11T21:29:26.493Z,100275.56
2023-05-11T21:31:55.814Z,100277.75
2023-05-11T21:34:25.183Z,100276.75
2023-05-11T21:36:54.638Z,100276.81
2023-05-11T21:39:24.820Z,100271.13
2023-05-11T21:41:54.242Z,100280.16
2023-05-11T21:44:26.118Z,100269.66
2023-05-11T21:46:55.740Z,100272.53
2023-05-11T21:49:25.221Z,100270.41
2023-05-11T21:51:54.491Z,100271.59
2023-05-11T21:54:23.816Z,100269.97
2023-05-11T21:56:53.651Z,100268.78
2023-05-11T21:59:26.782Z,100273.28
2023-05-11T22:01:59.435Z,100270.47
2023-05-11T22:04:28.899Z,100278.06
2023-05-11T22:07:01.478Z,100269.94
2023-05-11T22:09:31.695Z,100266.91
2023-05-11T22:12:01.046Z,100271.66
2023-05-11T22:14:30.477Z,100269.97
2023-05-11T22:17:02.403Z,100268.53
2023-05-11T22:19:31.832Z,100259.16
2023-05-11T22:22:01.170Z,100269.97
2023-05-11T22:24:30.510Z,100270.66
2023-05-11T22:26:59.849Z,100269.50
2023-05-11T22:29:29.198Z,100261.03
2023-05-11T22:31:58.535Z,100253.22
2023-05-11T22:34:30.569Z,100256.09
2023-05-11T22:37:01.362Z,100262.66
2023-05-11T22:39:30.998Z,100265.72
2023-05-11T22:42:00.426Z,100261.59
2023-05-11T22:44:29.955Z,100257.22
2023-05-11T22:46:59.513Z,100265.13
2023-05-11T22:49:31.405Z,100262.22
2023-05-11T22:52:00.741Z,100260.88
2023-05-11T22:54:30.041Z,100259.91
2023-05-11T22:56:59.347Z,100263.84
2023-05-11T22:59:28.809Z,100257.63
2023-05-11T23:02:01.875Z,100268.56
2023-05-11T23:04:34.273Z,100259.50
2023-05-11T23:07:04.386Z,100260.50
2023-05-11T23:09:33.685Z,100254.03
2023-05-11T23:12:03.689Z,100257.13
2023-05-11T23:14:33.053Z,100257.59
2023-05-11T23:17:02.377Z,100253.63
2023-05-11T23:19:34.315Z,100246.84
2023-05-11T23:22:03.687Z,100254.91
2023-05-11T23:24:33.037Z,100249.03
2023-05-11T23:27:03.491Z,100255.75
2023-05-11T23:29:32.919Z,100245.03
2023-05-11T23:32:02.249Z,100247.06
2023-05-11T23:34:34.124Z,100243.53
2023-05-11T23:37:03.390Z,100238.38
2023-05-11T23:39:32.669Z,100233.50
2023-05-11T23:42:02.002Z,100245.66
2023-05-11T23:44:31.656Z,100245.59
2023-05-11T23:47:01.973Z,100243.38
2023-05-11T23:49:34.102Z,100240.91
2023-05-11T23:52:03.428Z,100240.22
2023-05-11T23:54:32.703Z,100247.06
2023-05-11T23:57:02.225Z,100243.16
2023-05-11T23:59:31.534Z,100243.16
